Impacts TAF Board INFO
FOR SITUATIONAL AWARENESS. NOT TO BE USED FOR FLIGHT PLANNING PURPOSES.
IDs:

KMCO - Orlando Intl, FL, US

Issued at 0904 UTC 18 Aug 2017
Updated at 1057 UTC 18 Aug 2017
Potential Impact None Slight Moderate High
Time1053Z 18/11Z 18/12Z 18/13Z 18/14Z 18/15Z 18/16Z 18/17Z 18/18Z 18/19Z 18/20Z 18/21Z 18/22Z 18/23Z>>
Type OBS PRVL PRVL PRVL PRVL PRVL PRVL PRVL PRVL PRVL PRVL PRVL PRVL PRVL
VIS 10 >6 >6 >6 >6 >6 >6 >6 >6 >6 >6 >6 >6 >6
CIG -- 250 250 250 250 -- -- -- -- 150 150 150 150 150
Cover SCT BKN BKN BKN BKN SCT SCT SCT SCT BKN BKN BKN BKN BKN
FltCat VFR VFR VFR VFR VFR VFR VFR VFR VFR VFR VFR VFR VFR VFR
WX -- -- -- -- -- -- -- -- -- VCTS VCTS VCTS VCTS VCTS
WDir VRB VRB VRB VRB VRB 180 180 180 180 160 160 160 160 160
WSpd 0 3 3 3 3 4 4 4 4 7 7 7 7 7
WGst -- -- -- -- -- -- -- -- -- -- -- -- -- --

Raw TAF
KMCO 180904Z 1809/1906 VRB03KT P6SM BKN250
  FM181500 18004KT P6SM SCT030
  FM181900 16007KT P6SM VCTS SCT045CB BKN150
  FM190000 15005KT P6SM FEW040 BKN250


Raw METAR
KMCO 181053Z 00000KT 10SM FEW030 FEW150 FEW250 SCT300 24/24 A3002 RMK AO2 SLP165 CB DSNT E T02390239
KMCO 180953Z 00000KT 10SM FEW250 SCT300 23/23 A3001 RMK AO2 SLP161 T02330233
KMCO 180853Z 00000KT 10SM FEW200 BKN300 23/23 A3001 RMK AO2 SLP159 T02280228 55006
KMCO 180753Z 18003KT 9SM SCT300 23/23 A3000 RMK AO2 SLP158 T02280228

METAR Board
Radar Display
Forecast Discussion

FOR SITUATIONAL AWARENESS. NOT TO BE USED FOR FLIGHT PLANNING PURPOSES.